Time;durP1;ratioP1;P1;durP2;ratioP2;P2;SDS_P1;SDS_P2;PMS_P1;PMS_P2;Temp;Humidity;BMP_temperature;BMP_pressure;BME280_temperature;BME280_humidity;BME280_pressure;Samples;Min_cycle;Max_cycle;Signal;HPM_P1;HPM_P2
2023/11/05 00:00:16;;;;;;;2.50;1.50;;;9.50;99.90;;;;;;5075425;28;20456;-70
2023/11/05 00:02:45;;;;;;;2.57;1.40;;;9.50;99.90;;;;;;5074219;28;20445;-70
2023/11/05 00:05:14;;;;;;;1.63;1.47;;;9.50;99.90;;;;;;5075073;28;20490;-70
2023/11/05 00:07:42;;;;;;;2.27;1.40;;;9.50;99.90;;;;;;5075803;28;20473;-70
2023/11/05 00:10:11;;;;;;;2.17;1.50;;;9.60;99.90;;;;;;5075087;28;20449;-70
2023/11/05 00:12:39;;;;;;;2.53;1.60;;;9.60;99.90;;;;;;5075180;28;20445;-70
2023/11/05 00:15:08;;;;;;;2.23;1.20;;;9.60;99.90;;;;;;5074940;28;20944;-70
2023/11/05 00:17:38;;;;;;;2.27;1.70;;;9.60;99.90;;;;;;5073607;28;21000;-70
2023/11/05 00:20:07;;;;;;;1.40;1.10;;;9.60;99.90;;;;;;5074723;28;20460;-70
2023/11/05 00:22:35;;;;;;;2.17;1.70;;;9.60;99.90;;;;;;5074805;28;20547;-70
2023/11/05 00:25:04;;;;;;;1.50;1.00;;;9.60;99.90;;;;;;5074773;28;20433;-70
2023/11/05 00:27:32;;;;;;;3.10;1.53;;;9.70;99.90;;;;;;5074620;28;20471;-70
2023/11/05 00:30:00;;;;;;;2.40;1.40;;;9.70;99.90;;;;;;5074699;28;20461;-70
2023/11/05 00:32:28;;;;;;;2.50;1.40;;;9.70;99.90;;;;;;5073910;28;20452;-70
2023/11/05 00:34:58;;;;;;;2.20;1.73;;;9.70;99.90;;;;;;5075075;28;20429;-70
2023/11/05 00:37:27;;;;;;;3.90;1.73;;;9.70;99.90;;;;;;5073902;28;20446;-70
2023/11/05 00:39:55;;;;;;;3.03;1.40;;;9.70;99.90;;;;;;5073348;28;20489;-70
2023/11/05 00:42:23;;;;;;;3.00;1.60;;;9.70;99.90;;;;;;5073595;28;20452;-70
2023/11/05 00:44:51;;;;;;;2.93;1.60;;;9.70;99.90;;;;;;5074921;28;20520;-70
2023/11/05 00:47:19;;;;;;;1.60;1.10;;;9.70;99.90;;;;;;5073001;28;20906;-70
2023/11/05 00:49:47;;;;;;;2.83;1.80;;;9.80;99.90;;;;;;5074434;28;20544;-70
2023/11/05 00:52:17;;;;;;;2.30;1.50;;;9.70;99.90;;;;;;5074450;28;20441;-69
2023/11/05 00:54:45;;;;;;;1.67;1.27;;;9.70;99.90;;;;;;5073025;28;20477;-70
2023/11/05 00:57:13;;;;;;;3.10;1.20;;;9.70;99.90;;;;;;5073002;28;20548;-70
2023/11/05 00:59:41;;;;;;;2.47;1.60;;;9.70;99.90;;;;;;5072945;28;20453;-70
2023/11/05 01:02:10;;;;;;;3.50;1.30;;;9.80;99.90;;;;;;5075013;28;20437;-70
2023/11/05 01:04:38;;;;;;;2.30;1.50;;;9.80;99.90;;;;;;5074435;28;20855;-69
2023/11/05 01:07:06;;;;;;;2.60;1.43;;;9.80;99.90;;;;;;5072574;28;20468;-70
2023/11/05 01:09:36;;;;;;;3.30;1.63;;;9.80;99.90;;;;;;5073872;28;20453;-70
2023/11/05 01:12:04;;;;;;;2.10;1.10;;;9.70;99.90;;;;;;5072870;28;20552;-70
2023/11/05 01:14:32;;;;;;;2.50;1.13;;;9.80;99.90;;;;;;5072779;28;20510;-70
2023/11/05 01:17:00;;;;;;;2.03;1.30;;;9.80;99.90;;;;;;5074448;28;20436;-70
2023/11/05 01:19:28;;;;;;;1.63;1.10;;;9.80;99.90;;;;;;5079204;28;20521;-70
2023/11/05 01:21:57;;;;;;;3.67;1.67;;;9.80;99.90;;;;;;5075200;28;20441;-70
2023/11/05 01:24:25;;;;;;;2.70;1.33;;;9.80;99.90;;;;;;5075846;28;20441;-70
2023/11/05 01:26:54;;;;;;;1.83;1.23;;;9.80;99.90;;;;;;5074570;28;20568;-69
2023/11/05 01:29:22;;;;;;;2.27;1.10;;;9.80;99.90;;;;;;5073507;28;20457;-71
2023/11/05 01:31:51;;;;;;;2.90;1.50;;;9.80;99.90;;;;;;5073296;28;20449;-71
2023/11/05 01:34:19;;;;;;;2.83;1.53;;;9.80;99.90;;;;;;5074898;28;20483;-70
2023/11/05 01:36:47;;;;;;;2.10;1.37;;;9.80;99.90;;;;;;5074746;28;20434;-70
2023/11/05 01:39:15;;;;;;;2.13;1.30;;;9.80;99.90;;;;;;5074356;28;20488;-70
2023/11/05 01:41:44;;;;;;;2.77;1.50;;;9.90;99.90;;;;;;5073994;28;20465;-70
2023/11/05 01:44:13;;;;;;;2.90;1.40;;;9.80;99.90;;;;;;5072194;28;20449;-70
2023/11/05 01:46:42;;;;;;;2.40;1.20;;;9.90;99.90;;;;;;5072222;28;20449;-70
2023/11/05 01:49:10;;;;;;;2.93;2.00;;;9.90;99.90;;;;;;5072112;28;20453;-70
2023/11/05 01:51:39;;;;;;;2.80;1.40;;;9.90;99.90;;;;;;5073732;28;20445;-70
2023/11/05 01:54:08;;;;;;;4.33;1.50;;;9.90;99.90;;;;;;5073484;28;20520;-70
2023/11/05 01:56:37;;;;;;;3.43;1.73;;;9.90;99.90;;;;;;5073467;28;20465;-70
2023/11/05 01:59:05;;;;;;;2.90;1.37;;;9.90;99.90;;;;;;5072154;28;20464;-70
2023/11/05 02:01:35;;;;;;;2.00;1.27;;;9.90;99.90;;;;;;5072113;28;20484;-70
2023/11/05 02:04:03;;;;;;;3.40;1.30;;;9.90;99.90;;;;;;5072175;28;20511;-70
2023/11/05 02:06:32;;;;;;;4.27;1.90;;;9.90;99.90;;;;;;5072200;28;20512;-70
2023/11/05 02:09:00;;;;;;;3.33;1.50;;;9.90;99.90;;;;;;5072232;28;20487;-70
2023/11/05 02:11:28;;;;;;;3.63;1.43;;;9.90;99.90;;;;;;5073412;28;20461;-70
2023/11/05 02:13:57;;;;;;;3.40;1.77;;;9.90;99.90;;;;;;5072162;28;20532;-70
2023/11/05 02:16:31;;;;;;;2.50;1.70;;;9.90;99.90;;;;;;5073153;28;20429;-70
2023/11/05 02:19:00;;;;;;;3.90;1.50;;;9.90;99.90;;;;;;5073119;28;20474;-70
2023/11/05 02:21:43;;;;;;;4.07;1.57;;;9.90;99.90;;;;;;5073232;28;20457;-69
2023/11/05 02:24:13;;;;;;;3.90;1.40;;;9.90;99.90;;;;;;5073393;28;20453;-70
2023/11/05 02:26:41;;;;;;;3.33;1.40;;;9.90;99.90;;;;;;5073224;28;20433;-71
2023/11/05 02:29:09;;;;;;;3.10;1.30;;;10.00;99.90;;;;;;5071519;28;20481;-70
2023/11/05 02:31:37;;;;;;;3.17;1.47;;;10.00;99.90;;;;;;5071648;28;20452;-70
2023/11/05 02:34:06;;;;;;;4.17;1.93;;;10.00;99.90;;;;;;5071736;28;20449;-70
2023/11/05 02:36:34;;;;;;;3.20;1.77;;;10.00;99.90;;;;;;5072976;28;20437;-70
2023/11/05 02:39:02;;;;;;;3.50;1.60;;;10.00;99.90;;;;;;5071468;28;20501;-70
2023/11/05 02:41:31;;;;;;;4.93;2.07;;;10.00;99.90;;;;;;5073079;28;20479;-70
2023/11/05 02:43:59;;;;;;;4.53;1.90;;;10.00;99.90;;;;;;5072799;28;20494;-70
2023/11/05 02:46:27;;;;;;;4.67;1.80;;;10.00;99.90;;;;;;5072963;28;20433;-70
2023/11/05 02:48:56;;;;;;;3.67;1.33;;;10.00;99.90;;;;;;5071365;28;20982;-70
2023/11/05 02:51:24;;;;;;;4.77;1.57;;;10.10;99.90;;;;;;5071510;28;20544;-70
2023/11/05 02:53:52;;;;;;;4.30;1.30;;;10.00;99.90;;;;;;5073107;28;20462;-70
2023/11/05 02:56:20;;;;;;;3.37;1.60;;;10.00;99.90;;;;;;5075857;28;20437;-70
2023/11/05 02:58:50;;;;;;;3.33;1.70;;;10.10;99.90;;;;;;5075027;28;20560;-70
2023/11/05 03:01:23;;;;;;;4.73;1.33;;;10.00;99.90;;;;;;5075369;28;20471;-70
2023/11/05 03:03:51;;;;;;;2.60;1.20;;;10.10;99.90;;;;;;5075619;28;20452;-70
2023/11/05 03:06:20;;;;;;;2.83;1.47;;;10.10;99.90;;;;;;5076048;28;20452;-70
2023/11/05 03:08:49;;;;;;;4.03;1.60;;;10.10;99.90;;;;;;5076183;28;20966;-70
2023/11/05 03:11:17;;;;;;;2.40;1.57;;;10.10;99.90;;;;;;5074713;28;20516;-70
2023/11/05 03:13:45;;;;;;;2.87;1.43;;;10.10;99.90;;;;;;5076171;28;20946;-70
2023/11/05 03:16:14;;;;;;;3.60;1.77;;;10.10;99.90;;;;;;5075938;28;20440;-70
2023/11/05 03:18:42;;;;;;;4.27;1.60;;;10.10;99.90;;;;;;5076046;28;20452;-70
2023/11/05 03:21:15;;;;;;;4.07;1.60;;;10.10;99.90;;;;;;5074462;28;20883;-70
2023/11/05 03:23:44;;;;;;;3.63;1.60;;;10.10;99.90;;;;;;5074606;28;20445;-70
2023/11/05 03:26:12;;;;;;;2.80;1.47;;;10.10;99.90;;;;;;5074479;28;20479;-70
2023/11/05 03:28:40;;;;;;;2.83;1.40;;;10.10;99.90;;;;;;5076148;28;20488;-70
2023/11/05 03:31:09;;;;;;;3.83;1.70;;;10.10;99.90;;;;;;5074306;28;20460;-70
2023/11/05 03:33:39;;;;;;;3.40;2.00;;;10.10;99.90;;;;;;5074391;28;20441;-70
2023/11/05 03:36:08;;;;;;;5.30;1.70;;;10.00;99.90;;;;;;5074561;28;20440;-70
2023/11/05 03:38:36;;;;;;;3.50;1.63;;;10.00;99.90;;;;;;5074266;28;20555;-70
2023/11/05 03:41:05;;;;;;;3.73;1.50;;;10.00;99.90;;;;;;5076057;28;20486;-70
2023/11/05 03:43:33;;;;;;;3.13;1.60;;;10.00;99.90;;;;;;5074212;28;20457;-70
2023/11/05 03:46:03;;;;;;;4.00;2.20;;;10.00;99.90;;;;;;5074213;28;20810;-70
2023/11/05 03:48:31;;;;;;;2.50;1.33;;;9.90;99.90;;;;;;5073999;28;20874;-70
2023/11/05 03:51:00;;;;;;;4.30;1.70;;;9.90;99.90;;;;;;5075401;28;20483;-69
2023/11/05 03:53:28;;;;;;;3.13;1.60;;;9.90;99.90;;;;;;5075690;28;20498;-70
2023/11/05 03:55:57;;;;;;;3.80;1.70;;;9.90;99.90;;;;;;5074387;28;20441;-70
2023/11/05 03:58:25;;;;;;;2.70;1.50;;;9.90;99.90;;;;;;5075079;28;20494;-70
2023/11/05 04:00:54;;;;;;;3.30;1.87;;;9.80;99.90;;;;;;5075017;28;20430;-70
2023/11/05 04:03:22;;;;;;;3.63;1.50;;;9.80;99.90;;;;;;5074980;28;20539;-70
2023/11/05 04:05:51;;;;;;;4.73;2.17;;;9.80;99.90;;;;;;5075042;28;20876;-71
2023/11/05 04:08:20;;;;;;;2.47;1.30;;;9.80;99.90;;;;;;5073588;28;20472;-70
2023/11/05 04:10:48;;;;;;;3.77;2.10;;;9.80;99.90;;;;;;5074916;28;20517;-70
2023/11/05 04:13:16;;;;;;;8.17;5.27;;;9.80;99.90;;;;;;5075169;28;20958;-71
2023/11/05 04:15:45;;;;;;;6.40;5.07;;;9.80;99.90;;;;;;5074980;28;20523;-69
2023/11/05 04:18:13;;;;;;;7.20;4.13;;;9.80;99.90;;;;;;5074802;28;20526;-71
2023/11/05 04:20:41;;;;;;;7.63;4.73;;;9.70;99.90;;;;;;5075045;28;20439;-70
2023/11/05 04:23:09;;;;;;;3.47;2.00;;;9.70;99.90;;;;;;5074701;28;20524;-71
2023/11/05 04:25:38;;;;;;;4.83;2.93;;;9.70;99.90;;;;;;5074550;28;20902;-71
2023/11/05 04:28:07;;;;;;;6.10;3.93;;;9.70;99.90;;;;;;5074427;28;20433;-71
2023/11/05 04:30:35;;;;;;;4.50;2.37;;;9.70;99.90;;;;;;5074179;28;20480;-71
2023/11/05 04:33:03;;;;;;;4.03;1.80;;;9.70;99.90;;;;;;5074404;28;20520;-70
2023/11/05 04:35:32;;;;;;;2.20;1.40;;;9.70;99.90;;;;;;5074729;28;20437;-71
2023/11/05 04:38:00;;;;;;;2.80;1.40;;;9.70;99.90;;;;;;5074632;28;20447;-70
2023/11/05 04:40:28;;;;;;;3.57;1.20;;;9.70;99.90;;;;;;5073507;28;20465;-70
2023/11/05 04:42:57;;;;;;;2.60;1.50;;;9.80;99.90;;;;;;5074227;28;20437;-71
2023/11/05 04:45:25;;;;;;;2.77;1.40;;;9.70;99.90;;;;;;5074222;28;20469;-70
2023/11/05 04:47:53;;;;;;;3.47;1.43;;;9.70;99.90;;;;;;5074213;28;20476;-70
2023/11/05 04:50:22;;;;;;;4.80;1.70;;;9.70;99.90;;;;;;5074034;28;20477;-70
2023/11/05 04:52:52;;;;;;;3.20;1.60;;;9.80;99.90;;;;;;5074398;28;20437;-70
2023/11/05 04:55:21;;;;;;;3.10;1.17;;;9.80;99.90;;;;;;5074356;28;20764;-70
2023/11/05 04:57:49;;;;;;;2.60;1.40;;;9.80;99.90;;;;;;5072827;28;20529;-70
2023/11/05 05:00:19;;;;;;;3.30;1.50;;;9.80;99.90;;;;;;5072997;28;20568;-70
2023/11/05 05:02:47;;;;;;;4.07;1.80;;;9.70;99.90;;;;;;5074517;28;20429;-70
2023/11/05 05:05:15;;;;;;;4.83;1.63;;;9.70;99.90;;;;;;5074443;28;20441;-70
2023/11/05 05:07:43;;;;;;;4.60;1.60;;;9.70;99.90;;;;;;5074077;28;20795;-70
2023/11/05 05:10:11;;;;;;;2.40;1.37;;;9.70;99.90;;;;;;5074066;28;20469;-70
2023/11/05 05:12:40;;;;;;;4.37;1.30;;;9.80;99.90;;;;;;5072346;28;20788;-70
2023/11/05 05:15:09;;;;;;;4.73;2.10;;;9.80;99.90;;;;;;5073940;28;21021;-70
2023/11/05 05:17:39;;;;;;;5.80;2.20;;;9.80;99.90;;;;;;5073047;28;20441;-70
2023/11/05 05:20:09;;;;;;;3.50;1.50;;;9.80;99.90;;;;;;5073798;28;20453;-70
2023/11/05 05:22:37;;;;;;;4.23;2.13;;;9.80;99.90;;;;;;5073541;28;20440;-71
2023/11/05 05:25:06;;;;;;;2.40;1.50;;;9.80;99.90;;;;;;5073739;28;20433;-70
2023/11/05 05:27:36;;;;;;;4.30;2.17;;;9.80;99.90;;;;;;5074085;28;20425;-70
2023/11/05 05:30:04;;;;;;;6.87;2.00;;;9.80;99.90;;;;;;5073237;28;20575;-71
2023/11/05 05:32:32;;;;;;;4.90;1.50;;;9.80;99.90;;;;;;5073486;28;20445;-70
2023/11/05 05:35:03;;;;;;;2.67;1.30;;;9.80;99.90;;;;;;5072511;28;20540;-70
2023/11/05 05:37:31;;;;;;;4.33;1.80;;;9.80;99.90;;;;;;5073728;28;20467;-70
2023/11/05 05:39:59;;;;;;;1.90;1.30;;;9.80;99.90;;;;;;5073460;28;20499;-70
2023/11/05 05:42:29;;;;;;;2.23;1.30;;;9.80;99.90;;;;;;5073687;28;21018;-70
2023/11/05 05:44:57;;;;;;;4.23;1.93;;;9.80;99.90;;;;;;5073683;28;20536;-70
2023/11/05 05:47:25;;;;;;;2.80;1.50;;;9.80;99.90;;;;;;5073686;28;20838;-70
2023/11/05 05:49:54;;;;;;;3.40;1.33;;;9.80;99.90;;;;;;5073124;28;20484;-70
2023/11/05 05:52:23;;;;;;;2.63;1.47;;;9.80;99.90;;;;;;5073164;28;20520;-69
2023/11/05 05:54:51;;;;;;;5.43;1.90;;;9.80;99.90;;;;;;5071937;28;20457;-70
2023/11/05 05:57:19;;;;;;;3.63;1.70;;;9.80;99.90;;;;;;5073372;28;20490;-70
2023/11/05 05:59:47;;;;;;;3.40;1.60;;;9.80;99.90;;;;;;5073098;28;20456;-70
2023/11/05 06:02:15;;;;;;;2.40;1.50;;;9.80;99.90;;;;;;5073400;28;20491;-70
2023/11/05 06:04:44;;;;;;;3.00;1.33;;;9.80;99.90;;;;;;5073658;28;20535;-70
2023/11/05 06:07:12;;;;;;;3.30;1.90;;;9.80;99.90;;;;;;5073113;28;20437;-70
2023/11/05 06:09:42;;;;;;;2.87;1.63;;;9.80;99.90;;;;;;5073106;28;20477;-70
2023/11/05 06:12:10;;;;;;;4.00;2.30;;;9.80;99.90;;;;;;5073630;28;20456;-70
2023/11/05 06:14:38;;;;;;;2.90;1.63;;;9.80;99.90;;;;;;5073393;28;20445;-70
2023/11/05 06:17:16;;;;;;;2.90;1.87;;;9.80;99.90;;;;;;5073235;28;20514;-70
2023/11/05 06:19:44;;;;;;;4.43;1.73;;;9.80;99.90;;;;;;5073292;28;20986;-70
2023/11/05 06:22:12;;;;;;;3.00;1.43;;;9.80;99.90;;;;;;5073148;28;20437;-70
2023/11/05 06:24:43;;;;;;;4.33;2.00;;;9.80;99.90;;;;;;5073103;28;20441;-70
2023/11/05 06:27:11;;;;;;;4.10;2.73;;;9.80;99.90;;;;;;5073417;28;20495;-70
2023/11/05 06:29:39;;;;;;;4.77;2.10;;;9.80;99.90;;;;;;5073772;28;20943;-70
2023/11/05 06:32:07;;;;;;;3.07;1.53;;;9.80;99.90;;;;;;5077353;28;20907;-70
2023/11/05 06:34:35;;;;;;;4.13;1.87;;;9.80;99.90;;;;;;5076967;28;20437;-70
2023/11/05 06:37:05;;;;;;;3.73;1.80;;;9.80;99.90;;;;;;5076104;28;20456;-70
2023/11/05 06:39:33;;;;;;;3.07;1.80;;;9.80;99.90;;;;;;5077201;28;21022;-70
2023/11/05 06:42:02;;;;;;;4.53;2.00;;;9.80;99.90;;;;;;5077472;28;20425;-70
2023/11/05 06:44:30;;;;;;;5.20;1.90;;;9.80;99.90;;;;;;5077266;28;20443;-70
2023/11/05 06:46:58;;;;;;;3.63;2.20;;;9.80;99.90;;;;;;5077661;28;20429;-70
2023/11/05 06:49:26;;;;;;;6.97;2.13;;;9.80;99.90;;;;;;5077683;28;20548;-70
2023/11/05 06:51:55;;;;;;;4.10;1.97;;;9.80;99.90;;;;;;5077257;28;20518;-70
2023/11/05 06:54:23;;;;;;;4.03;2.40;;;9.80;99.90;;;;;;5077808;28;20441;-70
2023/11/05 06:56:51;;;;;;;5.03;2.23;;;9.80;99.90;;;;;;5077767;28;20433;-70
2023/11/05 06:59:20;;;;;;;3.10;2.07;;;9.80;99.90;;;;;;5077591;28;20470;-70
2023/11/05 07:01:48;;;;;;;4.53;2.50;;;9.90;99.90;;;;;;5077146;28;20483;-70
2023/11/05 07:04:17;;;;;;;5.80;2.60;;;9.90;99.90;;;;;;5077682;28;20444;-70
2023/11/05 07:06:46;;;;;;;4.00;2.53;;;9.80;99.90;;;;;;5077469;28;20433;-70
2023/11/05 07:09:15;;;;;;;4.53;2.77;;;9.90;99.90;;;;;;5076147;28;20544;-70
2023/11/05 07:11:43;;;;;;;5.20;2.80;;;9.90;99.90;;;;;;5076978;28;20464;-70
2023/11/05 07:14:11;;;;;;;2.80;2.50;;;9.90;99.90;;;;;;5076971;28;20455;-70
2023/11/05 07:16:41;;;;;;;5.10;2.70;;;9.90;99.90;;;;;;5076926;28;20448;-70
2023/11/05 07:19:10;;;;;;;3.90;2.93;;;9.90;99.90;;;;;;5077095;28;21039;-69
2023/11/05 07:21:38;;;;;;;5.37;2.53;;;9.90;99.90;;;;;;5076774;28;20452;-70
2023/11/05 07:24:07;;;;;;;3.50;3.13;;;9.90;99.90;;;;;;5077117;28;20433;-70
2023/11/05 07:26:36;;;;;;;4.80;2.83;;;9.90;99.90;;;;;;5076836;28;20437;-70
2023/11/05 07:29:04;;;;;;;5.00;3.47;;;9.90;99.90;;;;;;5078933;28;20488;-70
2023/11/05 07:31:32;;;;;;;3.47;2.70;;;9.90;99.90;;;;;;5082209;28;20510;-70
2023/11/05 07:34:02;;;;;;;4.70;3.40;;;9.90;99.90;;;;;;5078137;28;20461;-70
2023/11/05 07:36:32;;;;;;;6.47;4.20;;;9.90;99.90;;;;;;5079055;28;20417;-70
2023/11/05 07:39:00;;;;;;;7.13;6.30;;;9.90;99.90;;;;;;5075706;28;20519;-69
2023/11/05 07:41:28;;;;;;;8.00;4.87;;;9.90;99.90;;;;;;5076166;28;20950;-70
2023/11/05 07:43:56;;;;;;;4.60;2.80;;;9.90;99.90;;;;;;5076337;28;20433;-70
2023/11/05 07:46:25;;;;;;;4.70;2.93;;;9.90;99.90;;;;;;5075967;28;20441;-70
2023/11/05 07:48:53;;;;;;;3.77;3.30;;;9.90;99.90;;;;;;5075461;28;20503;-70
2023/11/05 07:51:23;;;;;;;5.40;2.97;;;9.90;99.90;;;;;;5076015;28;20547;-70
2023/11/05 07:53:52;;;;;;;5.30;2.67;;;10.00;99.90;;;;;;5074171;28;20437;-70
2023/11/05 07:56:21;;;;;;;9.27;5.23;;;9.90;99.90;;;;;;5074002;28;20449;-70
2023/11/05 07:58:50;;;;;;;5.67;3.50;;;10.00;99.90;;;;;;5075180;28;20449;-70
2023/11/05 08:01:18;;;;;;;3.47;2.67;;;10.00;99.90;;;;;;5075044;28;20866;-70
2023/11/05 08:03:47;;;;;;;4.13;2.33;;;10.00;99.90;;;;;;5075120;28;20448;-70
2023/11/05 08:06:15;;;;;;;7.47;3.10;;;10.00;99.90;;;;;;5075685;28;20809;-70
2023/11/05 08:08:46;;;;;;;5.20;3.17;;;10.00;99.90;;;;;;5075228;28;20445;-70
2023/11/05 08:11:15;;;;;;;3.77;2.70;;;10.00;99.90;;;;;;5074718;28;20476;-70
2023/11/05 08:13:43;;;;;;;2.93;2.27;;;10.00;99.90;;;;;;5074857;28;20601;-70
2023/11/05 08:16:11;;;;;;;3.10;2.63;;;10.00;99.90;;;;;;5074679;28;20491;-69
2023/11/05 08:18:40;;;;;;;3.77;2.60;;;10.00;99.90;;;;;;5074494;28;20560;-70
2023/11/05 08:21:08;;;;;;;4.60;2.77;;;10.00;99.90;;;;;;5074435;28;20437;-70
2023/11/05 08:23:37;;;;;;;3.67;2.50;;;10.00;99.90;;;;;;5074499;28;20437;-70
2023/11/05 08:26:06;;;;;;;4.43;2.80;;;10.10;99.90;;;;;;5074401;28;20441;-69
2023/11/05 08:28:34;;;;;;;3.47;2.40;;;10.10;99.90;;;;;;5074642;28;20459;-69
2023/11/05 08:31:06;;;;;;;3.87;2.87;;;10.10;99.90;;;;;;5074073;28;20469;-70
2023/11/05 08:33:34;;;;;;;3.73;3.07;;;10.10;99.90;;;;;;5074576;28;20426;-69
2023/11/05 08:36:02;;;;;;;4.10;3.10;;;10.20;99.90;;;;;;5074363;28;20445;-70
2023/11/05 08:38:31;;;;;;;3.20;2.70;;;10.20;99.90;;;;;;5072843;28;20810;-70
2023/11/05 08:40:59;;;;;;;3.70;2.57;;;10.20;99.90;;;;;;5074454;28;20472;-70
2023/11/05 08:43:28;;;;;;;8.13;4.37;;;10.20;99.90;;;;;;5074324;28;20437;-70
2023/11/05 08:46:00;;;;;;;4.83;3.07;;;10.20;99.90;;;;;;5074784;28;20426;-70
2023/11/05 08:48:32;;;;;;;3.10;2.53;;;10.20;99.90;;;;;;5074113;28;20441;-70
2023/11/05 08:51:00;;;;;;;2.93;2.43;;;10.30;99.90;;;;;;5073845;28;20823;-70
2023/11/05 08:53:28;;;;;;;3.40;2.47;;;10.30;99.90;;;;;;5072366;28;20495;-69
2023/11/05 08:55:56;;;;;;;3.83;2.90;;;10.30;99.90;;;;;;5074195;28;20473;-69
2023/11/05 08:58:24;;;;;;;3.67;3.00;;;10.40;99.90;;;;;;5073690;28;20803;-69
2023/11/05 09:00:56;;;;;;;4.33;3.23;;;10.40;99.90;;;;;;5073903;28;20437;-69
2023/11/05 09:03:24;;;;;;;4.40;3.00;;;10.40;99.90;;;;;;5074026;28;20467;-70
2023/11/05 09:05:54;;;;;;;6.60;3.60;;;10.50;99.90;;;;;;5077618;28;20449;-69
2023/11/05 09:08:23;;;;;;;4.60;3.20;;;10.50;99.90;;;;;;5076894;28;20981;-70
2023/11/05 09:10:51;;;;;;;5.23;3.63;;;10.60;99.90;;;;;;5073482;28;20443;-70
2023/11/05 09:13:20;;;;;;;3.83;3.10;;;10.60;99.90;;;;;;5073811;28;20867;-70
2023/11/05 09:15:50;;;;;;;3.40;2.90;;;10.60;99.90;;;;;;5073793;28;20445;-70
2023/11/05 09:18:19;;;;;;;4.10;3.00;;;10.70;99.90;;;;;;5073324;28;20812;-70
2023/11/05 09:20:48;;;;;;;3.00;2.50;;;10.70;99.90;;;;;;5072265;28;20479;-70
2023/11/05 09:23:16;;;;;;;2.80;2.33;;;10.70;99.90;;;;;;5072227;28;20448;-69
2023/11/05 09:25:44;;;;;;;3.97;3.57;;;10.80;99.90;;;;;;5073425;28;20508;-70
2023/11/05 09:28:13;;;;;;;3.07;2.77;;;10.80;99.90;;;;;;5073448;28;20436;-69
2023/11/05 09:30:42;;;;;;;3.57;2.50;;;10.80;99.90;;;;;;5073193;28;20456;-69
2023/11/05 09:33:10;;;;;;;2.70;2.10;;;10.80;99.90;;;;;;5073239;28;20988;-69
2023/11/05 09:35:39;;;;;;;3.77;2.80;;;10.90;99.90;;;;;;5073472;28;20787;-69
2023/11/05 09:38:08;;;;;;;4.03;2.70;;;10.90;99.90;;;;;;5073293;28;20433;-70
2023/11/05 09:40:36;;;;;;;3.30;2.77;;;10.90;99.90;;;;;;5071971;28;20552;-70
2023/11/05 09:43:06;;;;;;;4.00;2.70;;;10.90;99.90;;;;;;5073249;28;20433;-70
2023/11/05 09:45:35;;;;;;;3.50;3.20;;;11.00;99.90;;;;;;5073202;28;20441;-70
2023/11/05 09:48:06;;;;;;;3.03;2.60;;;11.00;99.90;;;;;;5073541;28;20852;-69
2023/11/05 09:50:34;;;;;;;3.33;3.03;;;11.00;99.90;;;;;;5073403;28;20515;-69
2023/11/05 09:53:10;;;;;;;3.70;2.77;;;11.00;99.90;;;;;;5073089;28;20878;-70
2023/11/05 09:55:39;;;;;;;3.10;2.80;;;11.10;99.90;;;;;;5073707;28;20417;-70
2023/11/05 09:58:07;;;;;;;3.20;2.50;;;11.10;99.90;;;;;;5073644;28;20468;-70
2023/11/05 10:00:37;;;;;;;3.80;2.70;;;11.10;99.90;;;;;;5072937;28;20818;-70
2023/11/05 10:03:07;;;;;;;5.13;2.73;;;11.10;99.90;;;;;;5073081;28;20432;-70
2023/11/05 10:05:37;;;;;;;4.13;3.10;;;11.10;99.90;;;;;;5077430;28;20758;-70
2023/11/05 10:08:08;;;;;;;3.07;2.60;;;11.20;99.90;;;;;;5077002;28;20441;-70
2023/11/05 10:10:37;;;;;;;3.20;2.90;;;11.20;99.90;;;;;;5077993;28;20540;-70
2023/11/05 10:13:05;;;;;;;3.23;2.20;;;11.20;99.90;;;;;;5077288;28;20503;-70
2023/11/05 10:15:34;;;;;;;4.60;3.23;;;11.20;99.90;;;;;;5075669;28;20445;-70
2023/11/05 10:18:03;;;;;;;4.37;3.70;;;11.20;99.90;;;;;;5077711;28;20454;-70
2023/11/05 10:20:32;;;;;;;4.30;3.67;;;11.20;99.90;;;;;;5076799;28;20480;-70
2023/11/05 10:23:04;;;;;;;5.20;4.10;;;11.20;99.90;;;;;;5076872;28;20437;-70
2023/11/05 10:25:34;;;;;;;3.97;3.20;;;11.30;99.90;;;;;;5077112;28;20437;-70
2023/11/05 10:28:03;;;;;;;5.13;3.60;;;11.30;99.90;;;;;;5076687;28;20437;-70
2023/11/05 10:30:32;;;;;;;4.57;3.93;;;11.30;99.90;;;;;;5076540;28;20494;-70
2023/11/05 10:33:02;;;;;;;5.97;5.30;;;11.30;99.90;;;;;;5076512;28;21004;-70
2023/11/05 10:35:32;;;;;;;8.10;5.07;;;11.30;99.90;;;;;;5077244;28;20433;-70
2023/11/05 10:38:02;;;;;;;5.17;4.67;;;11.30;99.90;;;;;;5077123;28;20475;-70
2023/11/05 10:40:30;;;;;;;4.20;3.50;;;11.40;99.90;;;;;;5076489;28;20453;-70
2023/11/05 10:43:00;;;;;;;4.17;3.77;;;11.40;99.90;;;;;;5076683;28;20468;-70
2023/11/05 10:45:29;;;;;;;5.13;4.70;;;11.40;99.90;;;;;;5076614;28;20437;-70
2023/11/05 10:47:57;;;;;;;5.67;5.17;;;11.40;99.90;;;;;;5076676;28;20523;-70
2023/11/05 10:50:28;;;;;;;5.77;5.27;;;11.40;99.90;;;;;;5076387;28;20457;-70
2023/11/05 10:52:59;;;;;;;5.10;4.60;;;11.40;99.90;;;;;;5076464;28;20953;-70
2023/11/05 10:55:32;;;;;;;4.60;4.17;;;11.50;99.90;;;;;;5076287;28;21056;-70
2023/11/05 10:58:03;;;;;;;5.60;5.10;;;11.50;99.90;;;;;;5074955;28;20446;-70
2023/11/05 11:00:57;;;;;;;5.80;4.83;;;11.50;99.90;;;;;;5074818;28;20445;-70
2023/11/05 11:03:26;;;;;;;5.83;5.33;;;11.50;99.90;;;;;;5076407;28;20423;-70
2023/11/05 11:06:00;;;;;;;5.87;5.33;;;11.50;99.90;;;;;;5076278;28;20793;-70
2023/11/05 11:08:30;;;;;;;6.17;5.67;;;11.60;99.90;;;;;;5074556;28;20540;-70
2023/11/05 11:11:09;;;;;;;6.17;5.53;;;11.60;99.90;;;;;;5076178;28;20445;-70
2023/11/05 11:13:47;;;;;;;5.80;5.30;;;11.60;99.90;;;;;;5076122;28;20492;-70
2023/11/05 11:16:23;;;;;;;6.47;5.57;;;11.60;99.90;;;;;;5075098;28;20961;-70
2023/11/05 11:18:52;;;;;;;6.23;5.63;;;11.60;99.90;;;;;;5075792;28;20456;-70
2023/11/05 11:21:20;;;;;;;6.20;5.70;;;11.60;99.90;;;;;;5076016;28;20436;-69
2023/11/05 11:23:50;;;;;;;7.03;6.33;;;11.60;99.90;;;;;;5074374;28;20444;-70
2023/11/05 11:26:20;;;;;;;7.93;7.30;;;11.60;99.90;;;;;;5075538;28;20812;-70
2023/11/05 11:28:57;;;;;;;6.80;6.20;;;11.60;99.90;;;;;;5074318;28;21057;-70
2023/11/05 11:31:27;;;;;;;6.13;5.63;;;11.70;99.90;;;;;;5075403;28;20453;-70
2023/11/05 11:33:55;;;;;;;6.40;5.90;;;11.60;99.90;;;;;;5075792;28;20449;-70
2023/11/05 11:36:24;;;;;;;6.90;6.37;;;11.70;99.90;;;;;;5075757;28;20443;-70
2023/11/05 11:38:52;;;;;;;6.77;6.20;;;11.70;99.90;;;;;;5075612;28;20857;-70
2023/11/05 11:41:20;;;;;;;6.53;5.97;;;11.70;99.90;;;;;;5075547;28;20436;-70
2023/11/05 11:43:48;;;;;;;6.50;5.90;;;11.70;99.90;;;;;;5075270;28;20425;-70
2023/11/05 11:46:24;;;;;;;7.33;6.63;;;11.70;99.90;;;;;;5075704;28;20447;-70
2023/11/05 11:48:53;;;;;;;9.63;7.20;;;11.70;99.90;;;;;;5075338;28;20465;-70
2023/11/05 11:51:22;;;;;;;7.80;7.10;;;11.70;99.90;;;;;;5075095;28;20429;-70
2023/11/05 11:53:50;;;;;;;7.70;7.10;;;11.70;99.90;;;;;;5074962;28;20966;-70
2023/11/05 11:56:19;;;;;;;7.87;7.20;;;11.80;99.90;;;;;;5074998;28;20996;-70
2023/11/05 11:58:47;;;;;;;7.43;6.83;;;11.80;99.90;;;;;;5074955;28;20500;-70
2023/11/05 12:01:17;;;;;;;8.47;7.67;;;11.80;99.90;;;;;;5074911;28;20441;-70
2023/11/05 12:03:47;;;;;;;8.00;7.40;;;11.80;99.90;;;;;;5073628;28;20965;-70
2023/11/05 12:06:15;;;;;;;10.63;9.70;;;11.80;99.90;;;;;;5075287;28;20441;-70
2023/11/05 12:08:46;;;;;;;10.30;9.30;;;11.80;99.90;;;;;;5074772;28;20457;-70
2023/11/05 12:11:16;;;;;;;10.00;9.00;;;11.80;99.90;;;;;;5073465;28;20625;-70
2023/11/05 12:13:46;;;;;;;7.53;6.90;;;11.80;99.90;;;;;;5074744;28;20543;-70
2023/11/05 12:16:16;;;;;;;9.27;8.40;;;11.90;99.90;;;;;;5074553;28;20524;-70
2023/11/05 12:18:48;;;;;;;9.50;8.60;;;11.90;99.90;;;;;;5074833;28;20460;-70
2023/11/05 12:21:16;;;;;;;8.47;7.67;;;11.90;99.90;;;;;;5074803;28;20500;-70
2023/11/05 12:23:45;;;;;;;7.80;7.10;;;11.90;99.90;;;;;;5074467;28;20491;-70
2023/11/05 12:26:16;;;;;;;7.47;6.77;;;12.00;99.90;;;;;;5074498;28;20433;-70
2023/11/05 12:28:45;;;;;;;9.97;8.97;;;12.00;99.90;;;;;;5074626;28;20461;-70
2023/11/05 12:31:15;;;;;;;8.90;8.17;;;12.00;99.90;;;;;;5074234;28;20445;-70
2023/11/05 12:33:45;;;;;;;8.23;7.57;;;12.00;99.90;;;;;;5074898;28;20465;-70
2023/11/05 12:36:15;;;;;;;7.33;6.63;;;12.10;99.90;;;;;;5074830;28;20838;-70
2023/11/05 12:38:43;;;;;;;8.60;7.80;;;12.00;99.90;;;;;;5072923;28;20457;-70
2023/11/05 12:41:11;;;;;;;9.33;8.47;;;12.00;99.90;;;;;;5074303;28;20429;-70
2023/11/05 12:43:40;;;;;;;7.43;6.77;;;12.10;99.90;;;;;;5074280;28;20524;-70
2023/11/05 12:46:08;;;;;;;8.63;7.83;;;12.10;99.90;;;;;;5074423;28;20433;-70
2023/11/05 12:48:36;;;;;;;9.40;8.50;;;12.10;99.90;;;;;;5074330;28;20536;-70
2023/11/05 12:51:05;;;;;;;8.87;7.97;;;12.10;99.90;;;;;;5073888;28;20437;-70
2023/11/05 12:53:35;;;;;;;8.03;7.23;;;12.10;99.90;;;;;;5073812;28;20469;-70
2023/11/05 12:56:05;;;;;;;7.50;6.80;;;12.10;99.90;;;;;;5073781;28;20523;-70
2023/11/05 12:58:36;;;;;;;7.17;6.47;;;12.10;99.90;;;;;;5073969;28;20425;-70
2023/11/05 13:01:05;;;;;;;7.77;6.57;;;12.10;99.90;;;;;;5074354;28;20414;-70